HELX  Luxor International  Airport

Luxor, Egypt

Add Bookmark
ICAO HELX
IATA LXR
Type Airport
Status Operational
Latitude
25° 40' 15" N
25.671000
Longitude
32° 42' 23" E
32.706600
Local (DST + 2) UTC (GMT + 2)
Sep 2, 2015 06:21 Sep 2, 2015 04:21
Sunrise-Sunset Local UTC
Begin Civil Twilight 05:05 03:05
Sunrise 05:28 03:28
Sunset 06:08 16:08
End Civil Twilight 06:32 16:32
VFR
VFR
MVFR
MVFR
IFR
IFR
LIFR
LIFR
Unknown
Unavailable

Current Weather

METAR Observed VFR
HELX 020300Z 00000KT CAVOK 26/09 Q1009 NOSIG Wed, Sep 2, 2015 @ 03:00 UTC
(1 Hour, 21 Minutes ago)
Visual Flight Rules
Wind Visibility Conditions
Calm 10 km or more
  • No significant weather
Temperatures Readings Precipitation
Current Temp
26°C
79°F
Dewpoint
9°C
48°F
Humidity 34%
Altimeter 29.79" Hg
Sea Level Pressure 1,009 mb
Field Elevation
88 m
289 ft
None Recorded

Forecast Weather

TAF
TAF HELX 012300Z 0200/0306 28006KT CAVOK
From To
Wed, Sep 2, 2015 @ 00:00 UTC Thu, Sep 3, 2015 @ 06:00 UTC
Wind Visibility Conditions
280° at 6 knots (11 kph) 10 km or more
  • No significant weather
-
-

CheckWX.com is intended as a tool to help pilots better visualize weather data. It is not intended as a substitute for an official weather briefing obtained from a Flight Service Station. CheckWX.com does not meet the FAA requirements for an official pre-flight weather briefing. Therefore, it's important that pilots still call and obtain an official FSS pre-flight weather briefing.

© 2007-2015 CheckWX.com
04:21:30 UTC